createdAt,value
2023-01-23T10:40:14.299Z,13.93
2023-01-23T10:42:23.933Z,15.68
2023-01-23T10:44:28.798Z,14.75
2023-01-23T10:46:37.817Z,13.48
2023-01-23T10:48:46.006Z,13.18
2023-01-23T10:50:51.724Z,13.00
2023-01-23T10:53:09.438Z,14.27
2023-01-23T10:55:34.052Z,12.88
2023-01-23T10:57:49.090Z,14.43
2023-01-23T11:00:00.544Z,13.52
2023-01-23T11:02:22.063Z,13.80
2023-01-23T11:04:29.732Z,13.02
2023-01-23T11:06:34.587Z,15.18
2023-01-23T11:08:41.599Z,13.23
2023-01-23T11:10:49.077Z,14.02
2023-01-23T11:12:56.442Z,15.82
2023-01-23T11:15:16.581Z,16.95
2023-01-23T11:17:26.667Z,16.60
2023-01-23T11:19:34.985Z,17.95
2023-01-23T11:21:51.903Z,15.52
2023-01-23T11:24:12.096Z,14.65
2023-01-23T11:26:37.947Z,16.10
2023-01-23T11:28:51.545Z,16.08
2023-01-23T11:31:13.807Z,17.15
2023-01-23T11:33:36.646Z,16.83
2023-01-23T11:36:03.125Z,18.58
2023-01-23T11:38:09.193Z,16.90
2023-01-23T11:40:17.783Z,20.10
2023-01-23T11:42:30.064Z,19.80
2023-01-23T11:44:45.659Z,19.92
2023-01-23T11:47:09.183Z,18.45
2023-01-23T11:49:27.378Z,22.50
2023-01-23T11:51:39.414Z,17.75
2023-01-23T11:53:53.060Z,19.63
2023-01-23T11:56:32.736Z,18.23
2023-01-23T11:59:04.913Z,18.15
2023-01-23T12:01:16.051Z,18.00
2023-01-23T12:03:50.946Z,21.30
2023-01-23T12:08:50.419Z,19.80
2023-01-23T12:11:13.943Z,18.33
2023-01-23T12:13:36.466Z,16.08
2023-01-23T12:15:50.036Z,16.00
2023-01-23T12:20:27.471Z,18.60
2023-01-23T12:22:43.483Z,17.20
2023-01-23T12:25:13.908Z,16.50
2023-01-23T12:27:27.618Z,22.30
2023-01-23T12:29:52.448Z,18.10
2023-01-23T12:32:17.628Z,16.85
2023-01-23T12:34:32.803Z,19.58
2023-01-23T12:37:10.248Z,15.70
2023-01-23T12:39:34.716Z,19.23
2023-01-23T12:41:45.432Z,16.73
2023-01-23T12:43:57.109Z,16.77
2023-01-23T12:46:06.721Z,16.83
2023-01-23T12:48:18.721Z,20.48
2023-01-23T12:50:31.931Z,16.35
2023-01-23T12:52:42.806Z,15.95
2023-01-23T12:54:53.775Z,19.20
2023-01-23T12:56:59.466Z,18.42
2023-01-23T12:59:14.377Z,15.75
2023-01-23T13:01:32.755Z,15.48
2023-01-23T13:03:56.078Z,23.85
2023-01-23T13:06:13.321Z,16.95
2023-01-23T13:08:29.112Z,16.45
2023-01-23T13:11:03.414Z,14.43
2023-01-23T13:13:09.089Z,15.15
2023-01-23T13:15:39.626Z,14.52
2023-01-23T13:17:50.540Z,15.20
2023-01-23T13:20:34.075Z,18.33
2023-01-23T13:22:39.214Z,16.30
2023-01-23T13:25:00.096Z,16.35
2023-01-23T13:27:55.833Z,17.58
2023-01-23T13:30:02.460Z,16.45
2023-01-23T13:32:30.809Z,14.55
2023-01-23T13:34:41.809Z,18.15
2023-01-23T13:36:50.995Z,14.68
2023-01-23T13:39:22.734Z,15.07
2023-01-23T13:41:31.558Z,15.07
2023-01-23T13:43:45.080Z,16.50
2023-01-23T13:45:52.721Z,15.80
2023-01-23T14:21:27.766Z,14.15
2023-01-23T14:23:40.961Z,12.00
2023-01-23T14:25:46.005Z,17.25
2023-01-23T14:28:05.680Z,16.60
2023-01-23T14:30:20.473Z,15.35
2023-01-23T14:32:26.237Z,16.92
2023-01-23T14:34:31.404Z,14.02
2023-01-23T14:38:42.432Z,15.07
2023-01-23T14:40:51.095Z,15.40
2023-01-23T14:43:03.048Z,13.32
2023-01-23T14:45:09.375Z,15.50
2023-01-23T14:47:19.571Z,16.17
2023-01-23T14:49:29.819Z,14.35
2023-01-23T14:51:34.668Z,15.18
2023-01-23T14:53:43.436Z,12.38
2023-01-23T14:55:52.667Z,15.63
2023-01-23T14:58:02.769Z,13.02
2023-01-23T15:00:08.970Z,14.05
2023-01-23T15:02:31.227Z,12.07
2023-01-23T15:04:36.303Z,13.75
2023-01-23T15:06:41.163Z,16.15
2023-01-23T15:08:46.235Z,13.10
2023-01-23T15:10:53.315Z,15.40
2023-01-23T15:13:03.873Z,14.32
2023-01-23T15:15:20.709Z,11.63
2023-01-23T15:17:25.901Z,14.20
2023-01-23T15:19:31.654Z,16.70
2023-01-23T15:21:42.045Z,14.23
2023-01-23T15:24:03.143Z,14.40
2023-01-23T15:26:33.669Z,17.35
2023-01-23T15:28:45.071Z,13.77
2023-01-23T15:30:50.661Z,13.65
2023-01-23T15:32:55.496Z,12.65
2023-01-23T15:35:00.427Z,16.55
2023-01-23T15:37:08.713Z,14.95
2023-01-23T15:39:21.476Z,15.15
2023-01-23T15:41:41.279Z,14.82
2023-01-23T15:43:48.744Z,15.23
2023-01-23T15:45:53.791Z,14.32
2023-01-23T15:47:58.626Z,16.40
2023-01-23T15:50:04.005Z,16.65
2023-01-23T15:52:21.365Z,15.38
2023-01-23T15:54:31.126Z,16.50
2023-01-23T15:56:37.611Z,17.35
2023-01-23T15:58:42.392Z,16.30
2023-01-23T16:00:49.857Z,18.52
2023-01-23T16:02:57.052Z,16.45
2023-01-23T16:05:03.099Z,17.50
2023-01-23T16:07:10.573Z,15.75
2023-01-23T16:09:26.134Z,17.25
2023-01-23T16:13:39.894Z,18.10
2023-01-23T16:17:52.987Z,19.00
2023-01-23T16:19:57.818Z,16.88
2023-01-23T16:22:05.323Z,20.35
2023-01-23T16:24:18.698Z,19.08
2023-01-23T16:26:25.888Z,18.13
2023-01-23T16:28:32.592Z,20.17
2023-01-23T16:30:37.454Z,21.80
2023-01-23T16:32:42.783Z,26.67
2023-01-23T16:34:50.732Z,21.88
2023-01-23T16:36:58.884Z,18.67
2023-01-23T16:39:05.170Z,21.15
2023-01-23T16:41:12.440Z,22.88
2023-01-23T16:43:17.327Z,24.63
2023-01-23T16:45:25.239Z,20.45
2023-01-23T16:47:30.830Z,32.47
2023-01-23T16:49:46.756Z,31.08
2023-01-23T16:52:03.084Z,24.35
2023-01-23T16:54:18.311Z,24.73
2023-01-23T16:58:31.938Z,24.50
2023-01-23T17:00:38.113Z,24.73
2023-01-23T17:02:43.287Z,22.35
2023-01-23T17:04:48.417Z,24.13
2023-01-23T17:06:53.411Z,20.42
2023-01-23T17:09:01.029Z,21.73
2023-01-23T17:11:08.211Z,22.08
2023-01-23T17:13:14.945Z,21.10
2023-01-23T17:15:26.858Z,21.50
2023-01-23T17:17:34.730Z,19.98
2023-01-23T17:19:42.565Z,24.38
2023-01-23T17:21:48.092Z,33.47
2023-01-23T17:23:53.324Z,19.50
2023-01-23T17:26:01.808Z,20.05
2023-01-23T17:28:12.445Z,24.80
2023-01-23T17:30:20.054Z,59.85
2023-01-23T17:32:30.803Z,21.52
2023-01-23T17:34:49.463Z,23.52
2023-01-23T17:36:56.092Z,23.25
2023-01-23T17:39:03.217Z,21.75
2023-01-23T17:41:15.844Z,22.08
2023-01-23T17:43:22.104Z,24.40
2023-01-23T17:45:29.179Z,23.27
2023-01-23T17:47:35.545Z,23.02
2023-01-23T17:49:40.720Z,22.88
2023-01-23T17:51:45.574Z,21.35
2023-01-23T17:53:51.505Z,22.30
2023-01-23T17:55:56.487Z,24.95
2023-01-23T17:58:03.917Z,23.65
2023-01-23T18:00:10.767Z,23.92
2023-01-23T18:02:26.781Z,21.55
2023-01-23T18:04:31.805Z,21.85
2023-01-23T18:06:36.829Z,21.98
2023-01-23T18:08:42.482Z,21.80
2023-01-23T18:10:49.930Z,22.55
2023-01-23T18:13:07.234Z,20.20
2023-01-23T18:15:19.326Z,19.67
2023-01-23T18:17:36.287Z,20.90
2023-01-23T18:19:41.765Z,22.98
2023-01-23T18:21:47.563Z,22.08
2023-01-23T18:23:52.926Z,21.73
2023-01-23T18:26:04.814Z,21.58
2023-01-23T18:28:20.075Z,20.15
2023-01-23T18:30:49.157Z,20.23
2023-01-23T18:33:09.869Z,28.98
2023-01-23T18:35:29.662Z,26.55
2023-01-23T18:37:44.172Z,22.48
2023-01-23T18:40:01.831Z,24.55
2023-01-23T18:42:18.744Z,27.02
2023-01-23T18:44:29.298Z,23.23
2023-01-23T18:46:34.865Z,22.75
2023-01-23T18:48:42.002Z,26.90
2023-01-23T18:51:08.447Z,21.08
2023-01-23T18:53:24.566Z,24.63
2023-01-23T18:55:39.758Z,23.08
2023-01-23T18:58:11.300Z,26.67
2023-01-23T19:00:25.002Z,23.45
2023-01-23T19:02:36.027Z,25.30
2023-01-23T19:04:47.332Z,25.67
2023-01-23T19:06:52.991Z,38.20
2023-01-23T19:08:58.171Z,28.70
2023-01-23T19:11:11.421Z,29.88
2023-01-23T19:13:22.702Z,27.17
2023-01-23T19:15:34.834Z,32.17
2023-01-23T19:17:49.156Z,22.52
2023-01-23T19:20:05.771Z,27.05
2023-01-23T19:22:14.417Z,27.15
2023-01-23T19:24:22.280Z,32.30
2023-01-23T19:26:29.750Z,28.90
2023-01-23T19:28:37.780Z,26.85
2023-01-23T19:30:47.009Z,41.35
2023-01-23T19:32:52.356Z,25.58
2023-01-23T19:35:12.524Z,25.50
2023-01-23T19:37:18.729Z,25.30
2023-01-23T19:41:30.893Z,25.00
2023-01-23T19:43:35.742Z,24.58
2023-01-23T19:45:40.544Z,26.17
2023-01-23T19:47:49.296Z,23.92
2023-01-23T19:49:54.121Z,24.77
2023-01-23T19:51:59.007Z,24.55
2023-01-23T19:54:06.591Z,26.17
2023-01-23T19:56:13.668Z,23.58
2023-01-23T19:58:18.479Z,31.05
2023-01-23T20:00:23.618Z,32.25
2023-01-23T20:02:29.090Z,20.85
2023-01-23T20:04:36.722Z,23.00
2023-01-23T20:06:41.729Z,23.40
2023-01-23T20:08:46.530Z,23.02
2023-01-23T20:10:51.363Z,22.40
2023-01-23T20:12:56.843Z,23.60
2023-01-23T20:15:01.759Z,21.55
2023-01-23T20:17:06.774Z,20.75
2023-01-23T20:19:15.701Z,19.95
2023-01-23T20:21:24.593Z,19.40
2023-01-23T20:23:29.724Z,22.98
2023-01-23T20:27:39.605Z,20.48
2023-01-23T20:31:50.012Z,21.40
2023-01-23T20:33:54.861Z,24.27
2023-01-23T20:35:59.697Z,21.92
2023-01-23T20:38:07.136Z,19.63
2023-01-23T20:40:14.266Z,19.75
2023-01-23T20:42:19.348Z,21.60
2023-01-23T20:44:24.416Z,18.95
2023-01-23T20:46:29.772Z,19.90
2023-01-23T20:48:36.574Z,18.77
2023-01-23T20:50:41.566Z,18.25
2023-01-23T20:52:58.809Z,19.00
2023-01-23T20:55:06.465Z,18.80
2023-01-23T20:57:11.783Z,24.85
2023-01-23T21:01:27.990Z,20.80
2023-01-23T21:03:33.079Z,23.65
2023-01-23T21:05:37.920Z,30.80
2023-01-23T21:07:42.898Z,21.80
2023-01-23T21:09:48.237Z,23.25
2023-01-23T21:11:56.607Z,23.67
2023-01-23T21:14:01.482Z,21.25
2023-01-23T21:16:08.648Z,19.88
2023-01-23T21:18:13.634Z,20.15
2023-01-23T21:20:18.964Z,19.67
2023-01-23T21:22:23.830Z,19.45
2023-01-23T21:24:28.947Z,17.55
2023-01-23T21:26:33.966Z,19.90
2023-01-23T21:28:41.520Z,20.02
2023-01-23T21:30:46.552Z,20.75
2023-01-23T21:32:51.466Z,21.20
2023-01-23T21:34:56.322Z,20.48
2023-01-23T21:37:01.227Z,20.35
2023-01-23T21:39:09.350Z,19.08
2023-01-23T21:41:15.217Z,20.10
2023-01-23T21:43:20.021Z,20.42
2023-01-23T21:45:27.845Z,21.02
2023-01-23T21:47:32.675Z,19.13
2023-01-23T21:49:37.577Z,20.70
2023-01-23T21:51:42.448Z,19.45
2023-01-23T21:53:49.041Z,18.42
2023-01-23T21:55:54.979Z,21.42
2023-01-23T21:57:59.772Z,19.35
2023-01-23T22:00:17.254Z,18.08
2023-01-23T22:02:24.819Z,20.90
2023-01-23T22:04:29.957Z,20.35
2023-01-23T22:06:35.412Z,19.55
2023-01-23T22:08:40.288Z,18.70
2023-01-23T22:10:45.126Z,20.27
2023-01-23T22:12:50.501Z,20.98
2023-01-23T22:14:55.340Z,20.13
2023-01-23T22:17:00.287Z,17.02
2023-01-23T22:19:07.855Z,19.02
2023-01-23T22:21:13.112Z,20.55
2023-01-23T22:25:22.879Z,18.25
2023-01-23T22:27:28.057Z,18.95
2023-01-23T22:29:32.862Z,17.35
2023-01-23T22:31:37.809Z,19.20
2023-01-23T22:33:44.462Z,16.52
2023-01-23T22:35:52.533Z,18.35
2023-01-23T22:37:57.367Z,18.77
2023-01-23T22:40:02.236Z,18.75
2023-01-23T22:42:07.352Z,17.77
2023-01-23T22:46:19.437Z,18.02
2023-01-23T22:48:24.280Z,19.08
2023-01-23T22:50:29.626Z,18.58
2023-01-23T22:52:37.147Z,18.50
2023-01-23T22:54:42.010Z,20.33
2023-01-23T22:56:46.944Z,21.23
2023-01-23T22:58:54.421Z,19.95
2023-01-23T23:00:59.528Z,21.95
2023-01-23T23:03:04.383Z,18.85
2023-01-23T23:05:10.807Z,18.38
2023-01-23T23:07:16.970Z,21.38
2023-01-23T23:09:24.552Z,20.67
2023-01-23T23:11:30.721Z,18.77
2023-01-23T23:13:38.697Z,19.08
2023-01-23T23:15:43.556Z,21.23
2023-01-23T23:17:48.522Z,20.60
2023-01-23T23:19:53.676Z,19.42
2023-01-23T23:24:03.863Z,20.05
2023-01-23T23:26:13.280Z,20.20
2023-01-23T23:28:18.092Z,19.23
2023-01-23T23:30:23.129Z,19.45
2023-01-23T23:32:28.062Z,20.17
2023-01-23T23:34:33.927Z,18.98
2023-01-23T23:36:39.952Z,19.05
2023-01-23T23:38:44.818Z,19.65
2023-01-23T23:40:56.963Z,17.88
2023-01-23T23:43:04.411Z,18.80
2023-01-23T23:45:10.857Z,17.08
2023-01-23T23:47:15.672Z,17.50
2023-01-23T23:49:20.484Z,17.83
2023-01-23T23:51:26.729Z,20.38
2023-01-23T23:53:32.276Z,17.73
2023-01-23T23:55:37.107Z,18.83
2023-01-23T23:57:41.955Z,18.13
2023-01-23T23:59:49.366Z,16.88
